createdAt,value
2022-12-25T00:00:53.423Z,16.03
2022-12-25T00:03:25.767Z,17.90
2022-12-25T00:05:54.786Z,17.87
2022-12-25T00:08:23.352Z,17.63
2022-12-25T00:11:02.387Z,18.03
2022-12-25T00:13:34.555Z,16.47
2022-12-25T00:16:08.422Z,17.20
2022-12-25T00:18:38.818Z,16.63
2022-12-25T00:21:08.519Z,16.50
2022-12-25T00:23:38.878Z,17.23
2022-12-25T00:26:10.012Z,16.70
2022-12-25T00:28:38.934Z,17.93
2022-12-25T00:31:10.583Z,17.30
2022-12-25T00:33:42.032Z,18.67
2022-12-25T00:36:12.781Z,15.90
2022-12-25T00:38:42.293Z,15.73
2022-12-25T00:41:15.849Z,15.60
2022-12-25T00:43:45.123Z,16.63
2022-12-25T00:46:15.092Z,16.03
2022-12-25T00:48:48.729Z,16.67
2022-12-25T00:51:17.217Z,18.57
2022-12-25T00:53:46.065Z,17.33
2022-12-25T00:56:14.681Z,17.43
2022-12-25T00:58:43.175Z,17.43
2022-12-25T01:01:12.041Z,17.07
2022-12-25T01:03:40.519Z,17.37
2022-12-25T01:06:12.872Z,18.30
2022-12-25T01:09:03.669Z,17.60
2022-12-25T01:11:32.365Z,17.67
2022-12-25T01:14:01.168Z,17.53
2022-12-25T01:16:29.732Z,17.20
2022-12-25T01:18:58.287Z,17.03
2022-12-25T01:21:28.315Z,15.63
2022-12-25T01:23:57.557Z,15.70
2022-12-25T01:26:27.962Z,14.13
2022-12-25T01:28:56.622Z,13.93
2022-12-25T01:31:26.411Z,13.33
2022-12-25T01:33:54.848Z,12.43
2022-12-25T01:36:25.650Z,12.43
2022-12-25T01:39:02.580Z,11.60
2022-12-25T01:41:32.183Z,10.57
2022-12-25T01:44:06.339Z,11.23
2022-12-25T01:46:35.707Z,10.67
2022-12-25T01:49:07.753Z,10.53
2022-12-25T01:51:40.233Z,10.87
2022-12-25T01:54:14.159Z,10.67
2022-12-25T01:56:45.100Z,10.63
2022-12-25T01:59:15.419Z,11.53
2022-12-25T02:01:44.342Z,11.03
2022-12-25T02:04:20.636Z,11.20
2022-12-25T02:06:51.147Z,10.17
2022-12-25T02:09:21.635Z,10.07
2022-12-25T02:12:00.322Z,9.03
2022-12-25T02:14:32.296Z,10.07
2022-12-25T02:17:08.650Z,9.77
2022-12-25T02:20:18.411Z,8.87
2022-12-25T02:22:58.581Z,8.70
2022-12-25T02:25:42.648Z,8.40
2022-12-25T02:28:23.246Z,8.83
2022-12-25T02:30:57.908Z,8.20
2022-12-25T02:33:49.935Z,8.10
2022-12-25T02:36:23.815Z,7.63
2022-12-25T02:39:16.184Z,7.63
2022-12-25T02:41:46.751Z,7.40
2022-12-25T02:44:40.816Z,7.57
2022-12-25T02:47:40.844Z,7.83
2022-12-25T02:50:28.339Z,8.93
2022-12-25T02:53:15.628Z,8.17
2022-12-25T02:56:05.442Z,8.60
2022-12-25T02:58:55.918Z,8.23
2022-12-25T03:01:47.305Z,7.67
2022-12-25T03:04:37.723Z,8.43
2022-12-25T03:07:09.369Z,7.33
2022-12-25T03:09:59.382Z,6.80
2022-12-25T03:12:43.578Z,7.23
2022-12-25T03:15:31.057Z,7.80
2022-12-25T03:18:03.800Z,7.10
2022-12-25T03:20:51.376Z,7.20
2022-12-25T03:23:40.591Z,6.90
2022-12-25T03:26:27.885Z,7.70
2022-12-25T03:28:56.226Z,7.03
2022-12-25T03:31:28.616Z,7.83
2022-12-25T03:34:44.487Z,7.77
2022-12-25T03:37:46.111Z,6.60
2022-12-25T03:40:40.930Z,7.03
2022-12-25T03:43:34.675Z,6.40
2022-12-25T03:46:24.683Z,7.60
2022-12-25T03:49:18.875Z,6.47
2022-12-25T03:52:07.777Z,6.17
2022-12-25T03:54:57.474Z,6.83
2022-12-25T03:57:43.902Z,5.87
2022-12-25T04:00:30.625Z,7.10
2022-12-25T04:03:16.876Z,6.70
2022-12-25T04:06:02.770Z,6.40
2022-12-25T04:08:51.177Z,6.63
2022-12-25T04:11:36.715Z,8.00
2022-12-25T04:14:22.546Z,7.37
2022-12-25T04:17:22.617Z,7.13
2022-12-25T04:20:08.361Z,7.60
2022-12-25T04:22:54.097Z,7.70
2022-12-25T04:25:41.409Z,7.43
2022-12-25T04:28:26.913Z,7.23
2022-12-25T04:31:13.217Z,6.97
2022-12-25T04:33:58.948Z,7.23
2022-12-25T04:36:27.459Z,7.57
2022-12-25T04:38:56.142Z,7.13
2022-12-25T04:41:25.992Z,6.70
2022-12-25T04:43:54.356Z,7.10
2022-12-25T04:46:22.836Z,6.50
2022-12-25T04:48:51.649Z,6.73
2022-12-25T04:51:22.470Z,6.43
2022-12-25T04:53:51.732Z,7.57
2022-12-25T04:56:21.086Z,7.07
2022-12-25T04:58:50.915Z,6.67
2022-12-25T05:01:19.400Z,6.53
2022-12-25T05:03:49.474Z,7.00
2022-12-25T05:06:20.962Z,6.87
2022-12-25T05:08:49.335Z,7.33
2022-12-25T05:11:18.110Z,6.80
2022-12-25T05:13:46.729Z,7.30
2022-12-25T05:16:18.712Z,7.40
2022-12-25T05:18:49.188Z,7.57
2022-12-25T05:21:17.906Z,7.40
2022-12-25T05:23:49.539Z,7.73
2022-12-25T05:26:19.522Z,8.67
2022-12-25T05:28:48.261Z,7.90
2022-12-25T05:31:18.518Z,8.50
2022-12-25T05:33:47.238Z,7.80
2022-12-25T05:36:15.804Z,8.50
2022-12-25T05:38:44.175Z,7.67
2022-12-25T05:41:12.547Z,7.17
2022-12-25T05:43:40.898Z,6.73
2022-12-25T05:46:11.176Z,7.03
2022-12-25T05:48:41.397Z,7.27
2022-12-25T05:51:11.844Z,7.87
2022-12-25T05:53:41.107Z,7.37
2022-12-25T05:56:11.087Z,7.77
2022-12-25T05:58:41.547Z,8.07
2022-12-25T06:01:14.967Z,8.07
2022-12-25T06:03:45.028Z,7.70
2022-12-25T06:06:14.039Z,8.47
2022-12-25T06:08:42.725Z,9.13
2022-12-25T06:11:13.702Z,8.63
2022-12-25T06:13:42.438Z,8.53
2022-12-25T06:16:12.573Z,8.47
2022-12-25T06:18:47.149Z,8.33
2022-12-25T06:21:17.704Z,8.33
2022-12-25T06:23:46.594Z,8.47
2022-12-25T06:26:17.268Z,8.33
2022-12-25T06:28:46.323Z,8.93
2022-12-25T06:31:16.719Z,9.23
2022-12-25T06:33:48.020Z,8.43
2022-12-25T06:36:17.953Z,8.20
2022-12-25T06:38:46.360Z,8.43
2022-12-25T06:41:16.788Z,8.33
2022-12-25T06:43:48.699Z,8.17
2022-12-25T06:46:17.346Z,7.70
2022-12-25T06:48:49.749Z,8.60
2022-12-25T06:51:19.291Z,8.53
2022-12-25T06:53:48.082Z,8.07
2022-12-25T06:56:18.462Z,9.83
2022-12-25T06:58:49.186Z,8.57
2022-12-25T07:01:21.615Z,8.60
2022-12-25T07:03:53.604Z,9.10
2022-12-25T07:06:22.319Z,9.53
2022-12-25T07:08:51.034Z,9.73
2022-12-25T07:11:19.812Z,10.27
2022-12-25T07:13:48.261Z,10.03
2022-12-25T07:16:17.301Z,11.13
2022-12-25T07:18:45.800Z,15.77
2022-12-25T07:21:16.961Z,15.13
2022-12-25T07:23:47.313Z,17.17
2022-12-25T07:26:17.384Z,18.83
2022-12-25T07:28:45.898Z,10.87
2022-12-25T07:31:16.710Z,9.73
2022-12-25T07:33:45.752Z,9.70
2022-12-25T07:36:16.569Z,9.47
2022-12-25T07:38:45.409Z,8.90
2022-12-25T07:41:15.157Z,9.87
2022-12-25T07:43:43.920Z,11.87
2022-12-25T07:46:13.623Z,14.03
2022-12-25T07:48:42.001Z,15.30
2022-12-25T07:51:16.299Z,14.53
2022-12-25T07:53:45.038Z,13.20
2022-12-25T07:56:15.305Z,12.23
2022-12-25T07:58:44.515Z,10.50
2022-12-25T08:01:16.860Z,15.03
2022-12-25T08:03:46.057Z,23.03
2022-12-25T08:06:16.039Z,28.93
2022-12-25T08:08:45.067Z,25.23
2022-12-25T08:11:13.993Z,23.07
2022-12-25T08:13:42.886Z,22.80
2022-12-25T08:16:12.871Z,21.87
2022-12-25T08:18:43.149Z,19.97
2022-12-25T08:21:13.337Z,18.07
2022-12-25T08:23:44.696Z,15.83
2022-12-25T08:26:16.763Z,14.20
2022-12-25T08:28:45.227Z,12.70
2022-12-25T08:31:16.985Z,12.80
2022-12-25T08:33:46.110Z,12.23
2022-12-25T08:36:15.206Z,11.83
2022-12-25T08:38:45.097Z,10.40
2022-12-25T08:41:14.616Z,19.60
2022-12-25T08:43:43.609Z,20.50
2022-12-25T08:46:12.976Z,16.13
2022-12-25T08:48:44.245Z,13.20
2022-12-25T08:51:15.856Z,10.03
2022-12-25T08:53:47.541Z,11.27
2022-12-25T08:56:16.956Z,9.93
2022-12-25T08:58:45.824Z,10.23
2022-12-25T09:01:14.911Z,9.13
2022-12-25T09:03:44.047Z,8.50
2022-12-25T09:06:14.766Z,9.93
2022-12-25T09:08:48.802Z,12.17
2022-12-25T09:11:21.076Z,9.07
2022-12-25T09:13:49.785Z,8.20
2022-12-25T09:16:20.378Z,8.53
2022-12-25T09:18:49.544Z,8.87
2022-12-25T09:21:19.263Z,10.07
2022-12-25T09:23:47.716Z,8.57
2022-12-25T09:26:20.140Z,9.70
2022-12-25T09:28:52.349Z,9.53
2022-12-25T09:31:21.677Z,9.70
2022-12-25T09:33:50.328Z,8.70
2022-12-25T09:36:21.568Z,8.43
2022-12-25T09:38:50.108Z,8.27
2022-12-25T09:41:28.739Z,7.40
2022-12-25T09:44:02.148Z,7.93
2022-12-25T09:46:40.843Z,8.40
2022-12-25T09:49:17.130Z,7.80
2022-12-25T09:51:47.217Z,7.70
2022-12-25T09:54:22.499Z,9.00
2022-12-25T09:56:53.623Z,10.27
2022-12-25T09:59:26.146Z,11.67
2022-12-25T10:02:25.505Z,13.73
2022-12-25T10:05:11.181Z,13.60
2022-12-25T10:07:49.170Z,10.87
2022-12-25T10:10:37.849Z,10.63
2022-12-25T10:13:21.636Z,11.20
2022-12-25T10:15:59.978Z,15.67
2022-12-25T10:18:54.994Z,13.17
2022-12-25T10:21:24.953Z,10.07
2022-12-25T10:24:07.043Z,9.70
2022-12-25T10:26:36.601Z,9.17
2022-12-25T10:29:14.513Z,10.37
2022-12-25T10:31:48.654Z,10.57
2022-12-25T10:34:18.230Z,10.83
2022-12-25T10:36:50.354Z,11.57
2022-12-25T10:39:20.089Z,11.50
2022-12-25T10:42:16.761Z,10.83
2022-12-25T10:44:58.541Z,11.63
2022-12-25T10:47:30.994Z,13.83
2022-12-25T10:50:01.334Z,14.17
2022-12-25T10:52:31.038Z,14.87
2022-12-25T10:55:00.039Z,20.60
2022-12-25T10:57:31.093Z,21.10
2022-12-25T11:00:01.825Z,18.30
2022-12-25T11:02:32.679Z,15.40
2022-12-25T11:05:04.035Z,13.10
2022-12-25T11:07:33.692Z,12.93
2022-12-25T11:10:06.212Z,14.23
2022-12-25T11:12:38.226Z,13.23
2022-12-25T11:15:39.097Z,12.57
2022-12-25T11:18:21.557Z,12.13
2022-12-25T11:20:51.682Z,10.97
2022-12-25T11:23:22.554Z,10.13
2022-12-25T11:25:58.537Z,9.70
2022-12-25T11:28:28.433Z,11.17
2022-12-25T11:31:03.083Z,10.90
2022-12-25T11:33:36.544Z,11.77
2022-12-25T11:36:12.621Z,10.40
2022-12-25T11:38:41.522Z,10.57
2022-12-25T11:41:14.029Z,10.23
2022-12-25T11:43:48.216Z,11.10
2022-12-25T11:46:23.105Z,8.73
2022-12-25T11:48:56.894Z,10.77
2022-12-25T11:51:31.612Z,10.73
2022-12-25T11:54:06.927Z,11.10
2022-12-25T11:56:36.826Z,12.97
2022-12-25T11:59:14.933Z,12.13
2022-12-25T12:01:53.510Z,11.70
2022-12-25T12:04:30.817Z,12.70
2022-12-25T12:07:06.707Z,12.40
2022-12-25T12:09:48.113Z,13.93
2022-12-25T12:12:22.327Z,15.00
2022-12-25T12:14:59.851Z,14.53
2022-12-25T12:17:36.758Z,15.60
2022-12-25T12:20:14.133Z,14.33
2022-12-25T12:22:55.780Z,15.67
2022-12-25T12:25:24.982Z,16.43
2022-12-25T12:28:04.531Z,16.10
2022-12-25T12:30:37.108Z,14.20
2022-12-25T12:33:25.555Z,15.83
2022-12-25T12:35:56.777Z,16.50
2022-12-25T12:38:29.489Z,14.77
2022-12-25T12:41:01.773Z,14.27
2022-12-25T12:43:37.562Z,15.50
2022-12-25T12:46:26.106Z,15.03
2022-12-25T12:49:14.166Z,15.80
2022-12-25T12:51:47.386Z,16.27
2022-12-25T12:54:23.277Z,16.17
2022-12-25T12:57:00.956Z,15.30
2022-12-25T12:59:43.877Z,14.73
2022-12-25T13:02:38.491Z,12.40
2022-12-25T13:05:17.855Z,17.07
2022-12-25T13:07:57.936Z,15.03
2022-12-25T13:10:33.617Z,16.17
2022-12-25T13:13:06.343Z,16.93
2022-12-25T13:15:37.349Z,14.77
2022-12-25T13:18:09.146Z,17.47
2022-12-25T13:20:49.773Z,16.13
2022-12-25T13:23:28.247Z,15.77
2022-12-25T13:26:08.322Z,15.70
2022-12-25T13:28:44.276Z,14.23
2022-12-25T13:31:19.552Z,13.07
2022-12-25T13:33:54.205Z,17.27
2022-12-25T13:36:34.204Z,16.30
2022-12-25T13:39:09.613Z,16.43
2022-12-25T13:42:02.421Z,15.03
2022-12-25T13:44:35.839Z,16.17
2022-12-25T13:47:27.098Z,17.73
2022-12-25T13:50:00.714Z,16.63
2022-12-25T13:52:36.855Z,16.83
2022-12-25T13:55:12.392Z,18.37
2022-12-25T13:57:45.226Z,14.50
2022-12-25T14:00:23.044Z,17.30
2022-12-25T14:02:54.008Z,16.43
2022-12-25T14:05:43.801Z,17.57
2022-12-25T14:08:20.699Z,16.60
2022-12-25T14:10:56.888Z,19.17
2022-12-25T14:13:30.655Z,18.47
2022-12-25T14:16:04.949Z,19.77
2022-12-25T14:18:43.429Z,17.20
2022-12-25T14:21:16.070Z,19.03
2022-12-25T14:23:51.081Z,17.77
2022-12-25T14:26:46.105Z,18.70
2022-12-25T14:29:26.598Z,19.27
2022-12-25T14:32:07.390Z,18.30
2022-12-25T14:34:39.845Z,18.70
2022-12-25T14:37:16.949Z,24.23
2022-12-25T14:39:55.750Z,37.50
2022-12-25T14:42:34.182Z,22.33
2022-12-25T14:45:10.747Z,19.63
2022-12-25T14:47:57.082Z,17.77
2022-12-25T14:50:37.255Z,16.03
2022-12-25T14:53:13.173Z,15.53
2022-12-25T14:55:55.884Z,15.83
2022-12-25T14:58:32.386Z,16.57
2022-12-25T15:01:11.523Z,15.97
2022-12-25T15:03:53.112Z,16.03
2022-12-25T15:06:25.287Z,19.57
2022-12-25T15:09:01.512Z,23.20
2022-12-25T15:11:38.547Z,26.63
2022-12-25T15:14:07.966Z,23.73
2022-12-25T15:16:44.907Z,23.67
2022-12-25T15:19:25.034Z,23.27
2022-12-25T15:21:55.845Z,23.27
2022-12-25T15:24:28.380Z,24.27
2022-12-25T15:27:00.823Z,24.10
2022-12-25T15:30:08.803Z,26.77
2022-12-25T15:32:28.333Z,29.77
2022-12-25T15:34:59.171Z,32.80
2022-12-25T15:37:28.239Z,26.37
2022-12-25T15:40:04.956Z,24.77
2022-12-25T15:42:44.965Z,28.13
2022-12-25T15:45:24.907Z,28.53
2022-12-25T15:48:03.729Z,29.93
2022-12-25T15:50:39.780Z,29.37
2022-12-25T15:53:15.043Z,26.13
2022-12-25T15:55:49.533Z,25.93
2022-12-25T15:58:23.506Z,26.80
2022-12-25T16:00:52.726Z,21.90
2022-12-25T16:03:23.507Z,19.50
2022-12-25T16:05:52.472Z,18.67
2022-12-25T16:08:26.354Z,16.57
2022-12-25T16:10:55.544Z,17.03
2022-12-25T16:13:42.006Z,14.83
2022-12-25T16:16:17.625Z,14.60
2022-12-25T16:18:49.708Z,14.00
2022-12-25T16:21:23.222Z,14.90
2022-12-25T16:23:55.555Z,14.93
2022-12-25T16:26:33.037Z,15.37
2022-12-25T16:29:15.195Z,13.83
2022-12-25T16:31:49.473Z,15.53
2022-12-25T16:34:29.064Z,13.90
2022-12-25T16:37:05.168Z,16.90
2022-12-25T16:39:35.183Z,17.13
2022-12-25T16:42:04.948Z,16.67
2022-12-25T16:44:43.296Z,20.87
2022-12-25T16:47:16.189Z,18.37
2022-12-25T16:49:45.922Z,19.93
2022-12-25T16:52:15.007Z,19.37
2022-12-25T16:54:50.244Z,18.63
2022-12-25T16:57:26.819Z,17.23
2022-12-25T17:00:00.714Z,15.83
2022-12-25T17:02:30.015Z,14.67
2022-12-25T17:05:04.280Z,15.80
2022-12-25T17:07:33.497Z,14.70
2022-12-25T17:10:04.121Z,18.20
2022-12-25T17:12:40.574Z,16.27
2022-12-25T17:15:19.911Z,15.20
2022-12-25T17:18:04.632Z,15.50
2022-12-25T17:20:45.358Z,15.93
2022-12-25T17:23:19.060Z,16.07
2022-12-25T17:25:55.984Z,22.37
2022-12-25T17:28:25.077Z,21.53
2022-12-25T17:31:01.959Z,19.60
2022-12-25T17:33:51.930Z,22.43
2022-12-25T17:36:26.109Z,17.97
2022-12-25T17:38:57.586Z,18.57
2022-12-25T17:41:42.547Z,21.13
2022-12-25T17:44:19.365Z,23.97
2022-12-25T17:46:50.697Z,21.47
2022-12-25T17:49:24.249Z,20.13
2022-12-25T17:51:59.647Z,20.33
2022-12-25T17:54:33.714Z,24.57
2022-12-25T17:57:15.030Z,24.60
2022-12-25T17:59:46.501Z,22.47
2022-12-25T18:02:21.760Z,24.27
2022-12-25T18:04:52.571Z,24.73
2022-12-25T18:07:22.175Z,26.73
2022-12-25T18:10:03.041Z,30.77
2022-12-25T18:12:36.361Z,33.53
2022-12-25T18:15:10.808Z,35.83
2022-12-25T18:17:50.233Z,36.47
2022-12-25T18:20:21.487Z,41.83
2022-12-25T18:22:59.757Z,40.50
2022-12-25T18:25:46.656Z,39.03
2022-12-25T18:28:19.349Z,34.53
2022-12-25T18:33:46.261Z,36.73
2022-12-25T18:36:23.298Z,33.83
2022-12-25T18:38:57.798Z,28.30
2022-12-25T18:41:28.826Z,29.73
2022-12-25T18:43:57.648Z,29.20
2022-12-25T18:46:32.817Z,28.30
2022-12-25T18:49:07.444Z,27.73
2022-12-25T18:51:42.004Z,35.50
2022-12-25T18:54:22.782Z,34.27
2022-12-25T18:56:55.236Z,45.90
2022-12-25T18:59:25.713Z,56.57
2022-12-25T19:01:57.570Z,45.43
2022-12-25T19:04:30.042Z,31.63
2022-12-25T19:06:58.868Z,26.23
2022-12-25T19:09:33.539Z,27.43
2022-12-25T19:12:03.094Z,24.20
2022-12-25T19:14:47.316Z,24.10
2022-12-25T19:17:17.965Z,27.10
2022-12-25T19:19:49.418Z,28.03
2022-12-25T19:22:22.646Z,26.00
2022-12-25T19:24:52.163Z,25.17
2022-12-25T19:27:21.630Z,30.87
2022-12-25T19:29:51.722Z,29.47
2022-12-25T19:32:20.669Z,29.20
2022-12-25T19:34:56.920Z,29.07
2022-12-25T19:37:25.903Z,30.20
2022-12-25T19:40:00.866Z,30.47
2022-12-25T19:42:36.116Z,30.17
2022-12-25T19:45:10.402Z,30.93
2022-12-25T19:47:44.875Z,30.80
2022-12-25T19:50:21.738Z,30.57
2022-12-25T19:52:53.216Z,31.60
2022-12-25T19:55:22.549Z,32.63
2022-12-25T19:57:55.884Z,34.10
2022-12-25T20:00:28.615Z,35.27
2022-12-25T20:03:07.899Z,34.63
2022-12-25T20:05:46.541Z,34.80
2022-12-25T20:08:16.130Z,31.67
2022-12-25T20:10:50.749Z,32.47
2022-12-25T20:13:25.520Z,30.73
2022-12-25T20:16:04.313Z,30.47
2022-12-25T20:18:36.941Z,31.00
2022-12-25T20:21:14.645Z,29.30
2022-12-25T20:23:46.068Z,29.93
2022-12-25T20:26:24.663Z,31.47
2022-12-25T20:29:04.265Z,30.97
2022-12-25T20:31:36.764Z,29.60
2022-12-25T20:34:24.207Z,32.83
2022-12-25T20:37:13.905Z,32.77
2022-12-25T20:39:43.419Z,29.07
2022-12-25T20:42:16.214Z,31.50
2022-12-25T20:44:58.739Z,31.70
2022-12-25T20:47:28.426Z,32.93
2022-12-25T20:49:57.936Z,32.93
2022-12-25T20:52:33.098Z,41.37
2022-12-25T20:55:02.284Z,32.67
2022-12-25T20:57:39.928Z,31.03
2022-12-25T21:00:15.753Z,30.20
2022-12-25T21:02:47.800Z,31.87
2022-12-25T21:05:17.532Z,30.27
2022-12-25T21:07:51.104Z,29.20
2022-12-25T21:10:22.095Z,30.03
2022-12-25T21:12:51.085Z,28.83
2022-12-25T21:15:21.098Z,28.20
2022-12-25T21:17:50.168Z,29.07
2022-12-25T21:20:22.279Z,28.90
2022-12-25T21:23:00.986Z,27.53
2022-12-25T21:25:38.191Z,27.93
2022-12-25T21:28:13.193Z,26.60
2022-12-25T21:30:48.716Z,29.07
2022-12-25T21:33:35.413Z,28.50
2022-12-25T21:36:20.448Z,30.50
2022-12-25T21:38:58.222Z,31.67
2022-12-25T21:44:12.786Z,33.53
2022-12-25T21:46:42.691Z,33.80
2022-12-25T21:49:15.040Z,32.37
2022-12-25T21:52:03.798Z,33.17
2022-12-25T21:54:39.857Z,33.67
2022-12-25T21:57:11.689Z,31.40
2022-12-25T21:59:41.226Z,30.30
2022-12-25T22:02:12.140Z,29.97
2022-12-25T22:04:44.209Z,28.70
2022-12-25T22:07:21.255Z,27.73
2022-12-25T22:09:59.823Z,26.47
2022-12-25T22:12:48.543Z,26.40
2022-12-25T22:15:19.791Z,25.03
2022-12-25T22:18:09.897Z,24.50
2022-12-25T22:20:40.540Z,25.23
2022-12-25T22:23:10.683Z,21.80
2022-12-25T22:25:43.201Z,21.07
2022-12-25T22:28:12.109Z,21.27
2022-12-25T22:30:44.455Z,19.53
2022-12-25T22:33:17.669Z,19.47
2022-12-25T22:35:50.134Z,20.67
2022-12-25T22:38:38.784Z,19.20
2022-12-25T22:41:14.174Z,18.87
2022-12-25T22:46:48.577Z,21.03
2022-12-25T22:49:19.255Z,19.60
2022-12-25T22:51:52.469Z,20.10
2022-12-25T22:54:24.618Z,19.70
2022-12-25T22:57:10.885Z,20.07
2022-12-25T22:59:41.648Z,22.93
2022-12-25T23:02:13.764Z,21.80
2022-12-25T23:04:43.175Z,22.27
2022-12-25T23:07:15.434Z,22.27
2022-12-25T23:09:44.436Z,22.47
2022-12-25T23:12:28.289Z,22.60
2022-12-25T23:14:58.718Z,21.77
2022-12-25T23:17:46.268Z,26.43
2022-12-25T23:20:37.462Z,25.17
2022-12-25T23:23:23.908Z,23.53
2022-12-25T23:26:10.908Z,24.20
2022-12-25T23:29:03.888Z,27.13
2022-12-25T23:31:39.782Z,20.33
2022-12-25T23:34:12.644Z,21.43
2022-12-25T23:36:41.647Z,22.53
2022-12-25T23:39:10.778Z,24.07
2022-12-25T23:41:40.311Z,23.00
2022-12-25T23:44:12.494Z,24.27
2022-12-25T23:46:52.684Z,26.97
2022-12-25T23:49:22.744Z,24.37
2022-12-25T23:51:52.583Z,23.77
2022-12-25T23:54:23.646Z,24.23
2022-12-25T23:56:52.955Z,25.03
2022-12-25T23:59:23.338Z,22.50
